sensor_id;sensor_type;location;lat;lon;timestamp;P1;durP1;ratioP1;P2;durP2;ratioP2
912;SDS011;443;51.448;7.028;2023-10-31T00:01:31;2.10;;;1.87;;
912;SDS011;443;51.448;7.028;2023-10-31T00:03:59;3.50;;;3.20;;
912;SDS011;443;51.448;7.028;2023-10-31T00:06:25;3.47;;;3.07;;
912;SDS011;443;51.448;7.028;2023-10-31T00:08:52;3.43;;;3.13;;
912;SDS011;443;51.448;7.028;2023-10-31T00:11:19;4.20;;;3.80;;
912;SDS011;443;51.448;7.028;2023-10-31T00:13:46;3.20;;;2.63;;
912;SDS011;443;51.448;7.028;2023-10-31T00:16:12;3.93;;;3.00;;
912;SDS011;443;51.448;7.028;2023-10-31T00:18:39;2.90;;;2.63;;
912;SDS011;443;51.448;7.028;2023-10-31T00:21:07;2.33;;;2.13;;
912;SDS011;443;51.448;7.028;2023-10-31T00:23:34;2.23;;;2.03;;
912;SDS011;443;51.448;7.028;2023-10-31T00:26:09;2.40;;;1.93;;
912;SDS011;443;51.448;7.028;2023-10-31T00:28:36;2.00;;;1.80;;
912;SDS011;443;51.448;7.028;2023-10-31T00:31:02;2.13;;;1.90;;
912;SDS011;443;51.448;7.028;2023-10-31T00:33:30;2.83;;;1.70;;
912;SDS011;443;51.448;7.028;2023-10-31T00:35:57;2.20;;;1.90;;
912;SDS011;443;51.448;7.028;2023-10-31T00:38:25;1.77;;;1.47;;
912;SDS011;443;51.448;7.028;2023-10-31T00:40:51;1.40;;;1.30;;
912;SDS011;443;51.448;7.028;2023-10-31T00:43:18;2.10;;;1.57;;
912;SDS011;443;51.448;7.028;2023-10-31T00:45:45;1.90;;;1.40;;
912;SDS011;443;51.448;7.028;2023-10-31T00:48:12;2.10;;;1.97;;
912;SDS011;443;51.448;7.028;2023-10-31T00:50:38;2.17;;;1.63;;
912;SDS011;443;51.448;7.028;2023-10-31T00:53:06;2.20;;;2.00;;
912;SDS011;443;51.448;7.028;2023-10-31T00:55:34;2.90;;;1.77;;
912;SDS011;443;51.448;7.028;2023-10-31T00:58:01;3.80;;;1.30;;
912;SDS011;443;51.448;7.028;2023-10-31T01:00:28;1.67;;;1.30;;
912;SDS011;443;51.448;7.028;2023-10-31T01:02:55;1.57;;;1.33;;
912;SDS011;443;51.448;7.028;2023-10-31T01:05:22;1.30;;;1.00;;
912;SDS011;443;51.448;7.028;2023-10-31T01:07:48;1.77;;;1.27;;
912;SDS011;443;51.448;7.028;2023-10-31T01:10:15;1.70;;;1.37;;
912;SDS011;443;51.448;7.028;2023-10-31T01:12:43;1.43;;;0.90;;
912;SDS011;443;51.448;7.028;2023-10-31T01:15:10;1.40;;;0.90;;
912;SDS011;443;51.448;7.028;2023-10-31T01:17:37;2.17;;;0.70;;
912;SDS011;443;51.448;7.028;2023-10-31T01:20:04;1.87;;;0.70;;
912;SDS011;443;51.448;7.028;2023-10-31T01:22:32;0.90;;;0.70;;
912;SDS011;443;51.448;7.028;2023-10-31T01:24:58;4.30;;;1.40;;
912;SDS011;443;51.448;7.028;2023-10-31T01:27:25;1.57;;;1.00;;
912;SDS011;443;51.448;7.028;2023-10-31T01:29:53;1.93;;;1.60;;
912;SDS011;443;51.448;7.028;2023-10-31T01:32:20;1.30;;;1.13;;
912;SDS011;443;51.448;7.028;2023-10-31T01:34:47;2.60;;;1.50;;
912;SDS011;443;51.448;7.028;2023-10-31T01:37:14;1.77;;;1.10;;
912;SDS011;443;51.448;7.028;2023-10-31T01:39:41;2.83;;;1.40;;
912;SDS011;443;51.448;7.028;2023-10-31T01:42:07;1.93;;;1.80;;
912;SDS011;443;51.448;7.028;2023-10-31T01:44:34;2.10;;;1.40;;
912;SDS011;443;51.448;7.028;2023-10-31T01:47:02;2.30;;;2.10;;
912;SDS011;443;51.448;7.028;2023-10-31T01:49:29;1.83;;;1.70;;
912;SDS011;443;51.448;7.028;2023-10-31T01:51:57;2.33;;;2.10;;
912;SDS011;443;51.448;7.028;2023-10-31T01:54:25;4.60;;;2.80;;
912;SDS011;443;51.448;7.028;2023-10-31T01:56:53;2.63;;;2.43;;
912;SDS011;443;51.448;7.028;2023-10-31T01:59:22;3.30;;;3.00;;
912;SDS011;443;51.448;7.028;2023-10-31T02:01:50;4.23;;;3.63;;
912;SDS011;443;51.448;7.028;2023-10-31T02:04:18;2.97;;;2.77;;
912;SDS011;443;51.448;7.028;2023-10-31T02:06:44;5.20;;;3.27;;
912;SDS011;443;51.448;7.028;2023-10-31T02:09:11;3.77;;;3.03;;
912;SDS011;443;51.448;7.028;2023-10-31T02:11:38;5.13;;;3.90;;
912;SDS011;443;51.448;7.028;2023-10-31T02:14:05;4.27;;;2.67;;
912;SDS011;443;51.448;7.028;2023-10-31T02:16:31;3.43;;;3.10;;
912;SDS011;443;51.448;7.028;2023-10-31T02:18:58;5.77;;;3.00;;
912;SDS011;443;51.448;7.028;2023-10-31T02:21:26;4.20;;;3.67;;
912;SDS011;443;51.448;7.028;2023-10-31T02:23:58;4.00;;;3.33;;
912;SDS011;443;51.448;7.028;2023-10-31T02:26:28;4.93;;;3.20;;
912;SDS011;443;51.448;7.028;2023-10-31T02:28:55;5.30;;;3.17;;
912;SDS011;443;51.448;7.028;2023-10-31T02:31:22;3.47;;;3.07;;
912;SDS011;443;51.448;7.028;2023-10-31T02:33:48;2.97;;;2.67;;
912;SDS011;443;51.448;7.028;2023-10-31T02:36:15;5.00;;;2.97;;
912;SDS011;443;51.448;7.028;2023-10-31T02:38:42;2.53;;;2.33;;
912;SDS011;443;51.448;7.028;2023-10-31T02:41:10;3.20;;;2.90;;
912;SDS011;443;51.448;7.028;2023-10-31T02:43:37;3.00;;;2.67;;
912;SDS011;443;51.448;7.028;2023-10-31T02:46:03;3.50;;;2.90;;
912;SDS011;443;51.448;7.028;2023-10-31T02:48:30;2.37;;;2.17;;
912;SDS011;443;51.448;7.028;2023-10-31T02:51:03;6.80;;;3.23;;
912;SDS011;443;51.448;7.028;2023-10-31T02:53:30;4.83;;;3.20;;
912;SDS011;443;51.448;7.028;2023-10-31T02:55:57;5.30;;;3.80;;
912;SDS011;443;51.448;7.028;2023-10-31T02:58:25;3.93;;;2.90;;
912;SDS011;443;51.448;7.028;2023-10-31T03:00:51;5.83;;;4.20;;
912;SDS011;443;51.448;7.028;2023-10-31T03:03:18;7.17;;;4.53;;
912;SDS011;443;51.448;7.028;2023-10-31T03:05:45;4.80;;;3.80;;
912;SDS011;443;51.448;7.028;2023-10-31T03:08:12;4.97;;;3.90;;
912;SDS011;443;51.448;7.028;2023-10-31T03:10:39;5.17;;;4.00;;
912;SDS011;443;51.448;7.028;2023-10-31T03:13:07;4.60;;;4.10;;
912;SDS011;443;51.448;7.028;2023-10-31T03:15:35;5.97;;;5.10;;
912;SDS011;443;51.448;7.028;2023-10-31T03:18:02;5.37;;;4.10;;
912;SDS011;443;51.448;7.028;2023-10-31T03:20:28;4.80;;;3.40;;
912;SDS011;443;51.448;7.028;2023-10-31T03:22:55;4.57;;;3.90;;
912;SDS011;443;51.448;7.028;2023-10-31T03:25:22;5.80;;;3.53;;
912;SDS011;443;51.448;7.028;2023-10-31T03:27:48;5.33;;;3.90;;
912;SDS011;443;51.448;7.028;2023-10-31T03:30:15;5.83;;;3.97;;
912;SDS011;443;51.448;7.028;2023-10-31T03:32:43;5.37;;;4.40;;
912;SDS011;443;51.448;7.028;2023-10-31T03:35:10;6.83;;;4.60;;
912;SDS011;443;51.448;7.028;2023-10-31T03:37:37;4.83;;;3.50;;
912;SDS011;443;51.448;7.028;2023-10-31T03:40:07;5.97;;;4.13;;
912;SDS011;443;51.448;7.028;2023-10-31T03:42:34;5.80;;;3.83;;
912;SDS011;443;51.448;7.028;2023-10-31T03:45:01;9.27;;;3.90;;
912;SDS011;443;51.448;7.028;2023-10-31T03:47:28;4.80;;;3.90;;
912;SDS011;443;51.448;7.028;2023-10-31T03:49:56;5.30;;;2.60;;
912;SDS011;443;51.448;7.028;2023-10-31T03:52:22;4.10;;;3.10;;
912;SDS011;443;51.448;7.028;2023-10-31T03:54:49;5.67;;;3.60;;
912;SDS011;443;51.448;7.028;2023-10-31T03:57:16;8.57;;;3.93;;
912;SDS011;443;51.448;7.028;2023-10-31T03:59:43;7.40;;;4.13;;
912;SDS011;443;51.448;7.028;2023-10-31T04:02:10;3.60;;;2.83;;
912;SDS011;443;51.448;7.028;2023-10-31T04:04:36;4.80;;;4.10;;
912;SDS011;443;51.448;7.028;2023-10-31T04:07:04;3.70;;;3.20;;
912;SDS011;443;51.448;7.028;2023-10-31T04:09:32;5.43;;;3.83;;
912;SDS011;443;51.448;7.028;2023-10-31T04:11:58;4.83;;;3.60;;
912;SDS011;443;51.448;7.028;2023-10-31T04:14:25;6.20;;;3.93;;
912;SDS011;443;51.448;7.028;2023-10-31T04:16:52;4.87;;;2.97;;
912;SDS011;443;51.448;7.028;2023-10-31T04:19:18;8.03;;;3.80;;
912;SDS011;443;51.448;7.028;2023-10-31T04:21:45;3.50;;;2.80;;
912;SDS011;443;51.448;7.028;2023-10-31T04:24:13;7.47;;;2.97;;
912;SDS011;443;51.448;7.028;2023-10-31T04:26:40;5.10;;;2.97;;
912;SDS011;443;51.448;7.028;2023-10-31T04:29:07;5.00;;;2.87;;
912;SDS011;443;51.448;7.028;2023-10-31T04:31:34;3.67;;;2.30;;
912;SDS011;443;51.448;7.028;2023-10-31T04:34:00;3.37;;;2.90;;
912;SDS011;443;51.448;7.028;2023-10-31T04:36:27;4.70;;;3.43;;
912;SDS011;443;51.448;7.028;2023-10-31T04:38:54;3.67;;;2.97;;
912;SDS011;443;51.448;7.028;2023-10-31T04:41:22;5.43;;;3.90;;
912;SDS011;443;51.448;7.028;2023-10-31T04:43:49;6.97;;;4.60;;
912;SDS011;443;51.448;7.028;2023-10-31T04:46:16;7.20;;;3.50;;
912;SDS011;443;51.448;7.028;2023-10-31T04:48:42;4.47;;;3.37;;
912;SDS011;443;51.448;7.028;2023-10-31T04:51:09;10.40;;;4.50;;
912;SDS011;443;51.448;7.028;2023-10-31T04:53:36;4.70;;;3.90;;
912;SDS011;443;51.448;7.028;2023-10-31T04:56:03;4.87;;;3.33;;
912;SDS011;443;51.448;7.028;2023-10-31T04:58:32;5.10;;;3.60;;
912;SDS011;443;51.448;7.028;2023-10-31T05:00:59;5.50;;;3.60;;
912;SDS011;443;51.448;7.028;2023-10-31T05:03:25;3.57;;;3.27;;
912;SDS011;443;51.448;7.028;2023-10-31T05:05:52;5.87;;;3.87;;
912;SDS011;443;51.448;7.028;2023-10-31T05:08:19;5.70;;;3.57;;
912;SDS011;443;51.448;7.028;2023-10-31T05:10:46;6.07;;;4.47;;
912;SDS011;443;51.448;7.028;2023-10-31T05:13:12;4.80;;;4.13;;
912;SDS011;443;51.448;7.028;2023-10-31T05:15:40;4.30;;;3.60;;
912;SDS011;443;51.448;7.028;2023-10-31T05:18:07;4.20;;;3.67;;
912;SDS011;443;51.448;7.028;2023-10-31T05:20:34;7.93;;;6.20;;
912;SDS011;443;51.448;7.028;2023-10-31T05:23:01;6.80;;;4.43;;
912;SDS011;443;51.448;7.028;2023-10-31T05:25:28;5.40;;;3.97;;
912;SDS011;443;51.448;7.028;2023-10-31T05:27:54;5.33;;;4.40;;
912;SDS011;443;51.448;7.028;2023-10-31T05:30:21;6.20;;;5.20;;
912;SDS011;443;51.448;7.028;2023-10-31T05:32:50;4.10;;;3.70;;
912;SDS011;443;51.448;7.028;2023-10-31T05:35:17;4.23;;;3.83;;
912;SDS011;443;51.448;7.028;2023-10-31T05:37:45;8.23;;;4.63;;
912;SDS011;443;51.448;7.028;2023-10-31T05:40:12;6.50;;;5.07;;
912;SDS011;443;51.448;7.028;2023-10-31T05:42:40;6.67;;;5.10;;
912;SDS011;443;51.448;7.028;2023-10-31T05:45:07;7.13;;;4.30;;
912;SDS011;443;51.448;7.028;2023-10-31T05:47:34;5.93;;;4.97;;
912;SDS011;443;51.448;7.028;2023-10-31T05:50:02;5.70;;;4.67;;
912;SDS011;443;51.448;7.028;2023-10-31T05:52:30;6.43;;;5.07;;
912;SDS011;443;51.448;7.028;2023-10-31T05:54:57;5.03;;;4.30;;
912;SDS011;443;51.448;7.028;2023-10-31T05:57:24;6.47;;;5.03;;
912;SDS011;443;51.448;7.028;2023-10-31T05:59:51;6.90;;;4.97;;
912;SDS011;443;51.448;7.028;2023-10-31T06:02:18;6.33;;;4.47;;
912;SDS011;443;51.448;7.028;2023-10-31T06:04:44;8.00;;;5.33;;
912;SDS011;443;51.448;7.028;2023-10-31T06:07:12;6.23;;;5.00;;
912;SDS011;443;51.448;7.028;2023-10-31T06:09:39;6.37;;;5.13;;
912;SDS011;443;51.448;7.028;2023-10-31T06:12:06;8.30;;;5.50;;
912;SDS011;443;51.448;7.028;2023-10-31T06:14:33;8.30;;;5.80;;
912;SDS011;443;51.448;7.028;2023-10-31T06:16:59;7.40;;;5.33;;
912;SDS011;443;51.448;7.028;2023-10-31T06:19:27;7.30;;;5.43;;
912;SDS011;443;51.448;7.028;2023-10-31T06:21:53;7.50;;;5.07;;
912;SDS011;443;51.448;7.028;2023-10-31T06:24:21;7.60;;;5.57;;
912;SDS011;443;51.448;7.028;2023-10-31T06:26:48;6.10;;;4.87;;
912;SDS011;443;51.448;7.028;2023-10-31T06:29:15;7.90;;;5.37;;
912;SDS011;443;51.448;7.028;2023-10-31T06:31:42;5.80;;;4.80;;
912;SDS011;443;51.448;7.028;2023-10-31T06:34:08;5.87;;;5.30;;
912;SDS011;443;51.448;7.028;2023-10-31T06:36:35;7.03;;;6.33;;
912;SDS011;443;51.448;7.028;2023-10-31T06:39:02;10.43;;;5.50;;
912;SDS011;443;51.448;7.028;2023-10-31T06:41:30;8.07;;;5.07;;
912;SDS011;443;51.448;7.028;2023-10-31T06:43:57;6.80;;;5.27;;
912;SDS011;443;51.448;7.028;2023-10-31T06:46:24;6.00;;;4.27;;
912;SDS011;443;51.448;7.028;2023-10-31T06:48:50;5.17;;;4.57;;
912;SDS011;443;51.448;7.028;2023-10-31T06:51:17;7.77;;;4.20;;
912;SDS011;443;51.448;7.028;2023-10-31T06:53:44;7.63;;;5.30;;
912;SDS011;443;51.448;7.028;2023-10-31T06:56:11;5.47;;;4.40;;
912;SDS011;443;51.448;7.028;2023-10-31T06:58:39;5.13;;;4.63;;
912;SDS011;443;51.448;7.028;2023-10-31T07:01:06;5.00;;;4.30;;
912;SDS011;443;51.448;7.028;2023-10-31T07:03:32;5.90;;;4.33;;
912;SDS011;443;51.448;7.028;2023-10-31T07:05:59;6.23;;;4.60;;
912;SDS011;443;51.448;7.028;2023-10-31T07:08:26;5.30;;;4.60;;
912;SDS011;443;51.448;7.028;2023-10-31T07:10:52;7.30;;;4.53;;
912;SDS011;443;51.448;7.028;2023-10-31T07:13:19;5.30;;;4.20;;
912;SDS011;443;51.448;7.028;2023-10-31T07:15:47;6.57;;;4.70;;
912;SDS011;443;51.448;7.028;2023-10-31T07:18:14;5.43;;;4.30;;
912;SDS011;443;51.448;7.028;2023-10-31T07:20:41;4.63;;;4.23;;
912;SDS011;443;51.448;7.028;2023-10-31T07:23:08;4.80;;;4.23;;
912;SDS011;443;51.448;7.028;2023-10-31T07:25:34;4.80;;;4.10;;
912;SDS011;443;51.448;7.028;2023-10-31T07:28:01;4.83;;;4.00;;
912;SDS011;443;51.448;7.028;2023-10-31T07:30:28;5.80;;;3.97;;
912;SDS011;443;51.448;7.028;2023-10-31T07:32:56;5.70;;;4.53;;
912;SDS011;443;51.448;7.028;2023-10-31T07:35:23;6.40;;;4.40;;
912;SDS011;443;51.448;7.028;2023-10-31T07:37:49;6.13;;;5.53;;
912;SDS011;443;51.448;7.028;2023-10-31T07:40:16;6.27;;;5.40;;
912;SDS011;443;51.448;7.028;2023-10-31T07:42:43;6.97;;;5.90;;
912;SDS011;443;51.448;7.028;2023-10-31T07:45:10;7.80;;;5.70;;
912;SDS011;443;51.448;7.028;2023-10-31T07:47:36;8.67;;;5.50;;
912;SDS011;443;51.448;7.028;2023-10-31T07:50:05;5.93;;;5.33;;
912;SDS011;443;51.448;7.028;2023-10-31T07:52:32;8.83;;;5.30;;
912;SDS011;443;51.448;7.028;2023-10-31T07:54:59;7.80;;;5.97;;
912;SDS011;443;51.448;7.028;2023-10-31T07:57:25;6.80;;;6.07;;
912;SDS011;443;51.448;7.028;2023-10-31T07:59:52;12.53;;;5.80;;
912;SDS011;443;51.448;7.028;2023-10-31T08:02:19;6.87;;;6.23;;
912;SDS011;443;51.448;7.028;2023-10-31T08:04:46;8.43;;;6.63;;
912;SDS011;443;51.448;7.028;2023-10-31T08:07:14;11.50;;;6.57;;
912;SDS011;443;51.448;7.028;2023-10-31T08:09:40;7.30;;;6.60;;
912;SDS011;443;51.448;7.028;2023-10-31T08:12:07;5.43;;;4.63;;
912;SDS011;443;51.448;7.028;2023-10-31T08:14:34;5.60;;;4.70;;
912;SDS011;443;51.448;7.028;2023-10-31T08:17:01;7.23;;;6.53;;
912;SDS011;443;51.448;7.028;2023-10-31T08:19:28;8.60;;;7.10;;
912;SDS011;443;51.448;7.028;2023-10-31T08:21:55;6.40;;;5.80;;
912;SDS011;443;51.448;7.028;2023-10-31T08:24:23;6.97;;;6.27;;
912;SDS011;443;51.448;7.028;2023-10-31T08:26:50;7.73;;;6.00;;
912;SDS011;443;51.448;7.028;2023-10-31T08:29:16;6.97;;;6.27;;
912;SDS011;443;51.448;7.028;2023-10-31T08:31:43;6.80;;;6.10;;
912;SDS011;443;51.448;7.028;2023-10-31T08:34:10;7.30;;;5.67;;
912;SDS011;443;51.448;7.028;2023-10-31T08:36:36;7.50;;;6.70;;
912;SDS011;443;51.448;7.028;2023-10-31T08:39:04;6.63;;;5.93;;
912;SDS011;443;51.448;7.028;2023-10-31T08:41:32;8.80;;;6.60;;
912;SDS011;443;51.448;7.028;2023-10-31T08:43:59;9.17;;;6.13;;
912;SDS011;443;51.448;7.028;2023-10-31T08:46:28;7.10;;;6.10;;
912;SDS011;443;51.448;7.028;2023-10-31T08:48:55;6.30;;;5.77;;
912;SDS011;443;51.448;7.028;2023-10-31T08:51:21;5.60;;;4.97;;
912;SDS011;443;51.448;7.028;2023-10-31T08:53:48;6.20;;;5.60;;
912;SDS011;443;51.448;7.028;2023-10-31T08:56:15;8.07;;;5.30;;
912;SDS011;443;51.448;7.028;2023-10-31T08:58:43;8.00;;;5.80;;
912;SDS011;443;51.448;7.028;2023-10-31T09:01:10;6.87;;;5.83;;
912;SDS011;443;51.448;7.028;2023-10-31T09:03:37;7.00;;;6.00;;
912;SDS011;443;51.448;7.028;2023-10-31T09:06:03;7.03;;;5.53;;
912;SDS011;443;51.448;7.028;2023-10-31T09:08:30;8.53;;;5.50;;
912;SDS011;443;51.448;7.028;2023-10-31T09:10:59;6.53;;;5.50;;
912;SDS011;443;51.448;7.028;2023-10-31T09:13:27;5.77;;;5.10;;
912;SDS011;443;51.448;7.028;2023-10-31T09:15:55;5.40;;;4.30;;
912;SDS011;443;51.448;7.028;2023-10-31T09:18:22;5.50;;;4.60;;
912;SDS011;443;51.448;7.028;2023-10-31T09:20:49;6.80;;;4.17;;
912;SDS011;443;51.448;7.028;2023-10-31T09:23:15;4.40;;;3.80;;
912;SDS011;443;51.448;7.028;2023-10-31T09:25:42;6.97;;;3.67;;
912;SDS011;443;51.448;7.028;2023-10-31T09:28:09;5.70;;;4.10;;
912;SDS011;443;51.448;7.028;2023-10-31T09:30:36;5.50;;;4.17;;
912;SDS011;443;51.448;7.028;2023-10-31T09:33:04;5.57;;;4.07;;
912;SDS011;443;51.448;7.028;2023-10-31T09:35:31;5.87;;;4.70;;
912;SDS011;443;51.448;7.028;2023-10-31T09:37:58;4.17;;;3.43;;
912;SDS011;443;51.448;7.028;2023-10-31T09:40:25;4.50;;;4.10;;
912;SDS011;443;51.448;7.028;2023-10-31T09:42:52;5.07;;;3.60;;
912;SDS011;443;51.448;7.028;2023-10-31T09:45:18;8.13;;;4.87;;
912;SDS011;443;51.448;7.028;2023-10-31T09:47:45;6.10;;;4.80;;
912;SDS011;443;51.448;7.028;2023-10-31T09:50:13;4.67;;;4.20;;
912;SDS011;443;51.448;7.028;2023-10-31T09:52:40;6.53;;;3.67;;
912;SDS011;443;51.448;7.028;2023-10-31T09:55:07;5.67;;;3.77;;
912;SDS011;443;51.448;7.028;2023-10-31T09:57:34;5.80;;;4.43;;
912;SDS011;443;51.448;7.028;2023-10-31T10:00:01;4.67;;;4.20;;
912;SDS011;443;51.448;7.028;2023-10-31T10:02:28;5.03;;;4.13;;
912;SDS011;443;51.448;7.028;2023-10-31T10:04:55;3.33;;;3.00;;
912;SDS011;443;51.448;7.028;2023-10-31T10:07:23;5.83;;;4.03;;
912;SDS011;443;51.448;7.028;2023-10-31T10:09:50;5.07;;;4.40;;
912;SDS011;443;51.448;7.028;2023-10-31T10:12:17;5.53;;;4.40;;
912;SDS011;443;51.448;7.028;2023-10-31T10:14:45;4.83;;;4.17;;
912;SDS011;443;51.448;7.028;2023-10-31T10:17:15;5.47;;;4.63;;
912;SDS011;443;51.448;7.028;2023-10-31T10:19:43;5.90;;;4.20;;
912;SDS011;443;51.448;7.028;2023-10-31T10:22:10;4.70;;;4.07;;
912;SDS011;443;51.448;7.028;2023-10-31T10:24:40;4.27;;;3.87;;
912;SDS011;443;51.448;7.028;2023-10-31T10:27:07;5.40;;;4.30;;
912;SDS011;443;51.448;7.028;2023-10-31T10:29:34;5.40;;;4.33;;
912;SDS011;443;51.448;7.028;2023-10-31T10:32:04;5.10;;;4.60;;
912;SDS011;443;51.448;7.028;2023-10-31T10:34:33;5.43;;;4.00;;
912;SDS011;443;51.448;7.028;2023-10-31T10:37:00;5.70;;;4.37;;
912;SDS011;443;51.448;7.028;2023-10-31T10:39:29;7.40;;;4.93;;
912;SDS011;443;51.448;7.028;2023-10-31T10:42:01;11.10;;;5.70;;
912;SDS011;443;51.448;7.028;2023-10-31T10:44:32;6.90;;;5.63;;
912;SDS011;443;51.448;7.028;2023-10-31T10:47:01;5.60;;;4.40;;
912;SDS011;443;51.448;7.028;2023-10-31T10:49:32;5.97;;;3.87;;
912;SDS011;443;51.448;7.028;2023-10-31T10:52:01;7.03;;;4.00;;
912;SDS011;443;51.448;7.028;2023-10-31T10:54:37;6.20;;;3.70;;
912;SDS011;443;51.448;7.028;2023-10-31T10:57:13;5.57;;;4.37;;
912;SDS011;443;51.448;7.028;2023-10-31T10:59:42;7.47;;;3.63;;
912;SDS011;443;51.448;7.028;2023-10-31T11:02:15;4.57;;;3.33;;
912;SDS011;443;51.448;7.028;2023-10-31T11:04:43;7.23;;;3.23;;
912;SDS011;443;51.448;7.028;2023-10-31T11:07:10;4.00;;;3.57;;
912;SDS011;443;51.448;7.028;2023-10-31T11:09:38;6.17;;;4.13;;
912;SDS011;443;51.448;7.028;2023-10-31T11:12:08;3.90;;;3.00;;
912;SDS011;443;51.448;7.028;2023-10-31T11:14:38;4.97;;;3.53;;
912;SDS011;443;51.448;7.028;2023-10-31T11:17:09;5.33;;;3.90;;
912;SDS011;443;51.448;7.028;2023-10-31T11:19:44;3.47;;;3.17;;
912;SDS011;443;51.448;7.028;2023-10-31T11:22:11;4.07;;;2.70;;
912;SDS011;443;51.448;7.028;2023-10-31T11:24:38;4.77;;;2.87;;
912;SDS011;443;51.448;7.028;2023-10-31T11:27:06;8.30;;;4.20;;
912;SDS011;443;51.448;7.028;2023-10-31T11:29:35;5.63;;;3.03;;
912;SDS011;443;51.448;7.028;2023-10-31T11:32:03;4.40;;;3.00;;
912;SDS011;443;51.448;7.028;2023-10-31T11:34:33;4.40;;;2.73;;
912;SDS011;443;51.448;7.028;2023-10-31T11:37:19;5.37;;;3.30;;
912;SDS011;443;51.448;7.028;2023-10-31T11:42:47;3.07;;;2.33;;
912;SDS011;443;51.448;7.028;2023-10-31T11:45:26;2.33;;;1.83;;
912;SDS011;443;51.448;7.028;2023-10-31T11:47:55;3.87;;;2.77;;
912;SDS011;443;51.448;7.028;2023-10-31T11:50:22;4.10;;;2.83;;
912;SDS011;443;51.448;7.028;2023-10-31T11:52:59;5.50;;;2.70;;
912;SDS011;443;51.448;7.028;2023-10-31T11:55:31;4.20;;;1.93;;
912;SDS011;443;51.448;7.028;2023-10-31T11:58:11;8.37;;;2.37;;
912;SDS011;443;51.448;7.028;2023-10-31T12:00:40;5.23;;;2.40;;
912;SDS011;443;51.448;7.028;2023-10-31T12:03:07;4.80;;;2.60;;
912;SDS011;443;51.448;7.028;2023-10-31T12:05:34;5.97;;;2.57;;
912;SDS011;443;51.448;7.028;2023-10-31T12:08:00;4.20;;;2.63;;
912;SDS011;443;51.448;7.028;2023-10-31T12:10:28;4.40;;;1.60;;
912;SDS011;443;51.448;7.028;2023-10-31T12:12:56;2.07;;;1.40;;
912;SDS011;443;51.448;7.028;2023-10-31T12:15:24;3.67;;;2.20;;
912;SDS011;443;51.448;7.028;2023-10-31T12:17:56;6.13;;;2.03;;
912;SDS011;443;51.448;7.028;2023-10-31T12:20:24;5.73;;;2.27;;
912;SDS011;443;51.448;7.028;2023-10-31T12:23:00;2.57;;;1.63;;
912;SDS011;443;51.448;7.028;2023-10-31T12:25:28;5.10;;;3.00;;
912;SDS011;443;51.448;7.028;2023-10-31T12:27:57;6.50;;;1.37;;
912;SDS011;443;51.448;7.028;2023-10-31T12:30:24;7.23;;;1.73;;
912;SDS011;443;51.448;7.028;2023-10-31T12:32:54;2.13;;;1.33;;
912;SDS011;443;51.448;7.028;2023-10-31T12:35:22;1.40;;;1.30;;
912;SDS011;443;51.448;7.028;2023-10-31T12:37:50;2.00;;;1.80;;
912;SDS011;443;51.448;7.028;2023-10-31T12:40:19;2.80;;;1.40;;
912;SDS011;443;51.448;7.028;2023-10-31T12:42:48;2.73;;;1.20;;
912;SDS011;443;51.448;7.028;2023-10-31T12:45:16;2.47;;;1.40;;
912;SDS011;443;51.448;7.028;2023-10-31T12:47:44;2.97;;;1.53;;
912;SDS011;443;51.448;7.028;2023-10-31T12:50:13;2.57;;;1.80;;
912;SDS011;443;51.448;7.028;2023-10-31T12:52:45;3.67;;;1.97;;
912;SDS011;443;51.448;7.028;2023-10-31T12:55:16;3.53;;;1.33;;
912;SDS011;443;51.448;7.028;2023-10-31T12:57:44;2.43;;;1.77;;
912;SDS011;443;51.448;7.028;2023-10-31T13:00:12;1.93;;;1.73;;
912;SDS011;443;51.448;7.028;2023-10-31T13:02:40;1.63;;;1.23;;
912;SDS011;443;51.448;7.028;2023-10-31T13:05:08;1.70;;;1.37;;
912;SDS011;443;51.448;7.028;2023-10-31T13:07:38;4.00;;;1.47;;
912;SDS011;443;51.448;7.028;2023-10-31T13:10:06;1.60;;;1.43;;
912;SDS011;443;51.448;7.028;2023-10-31T13:12:34;6.13;;;2.07;;
912;SDS011;443;51.448;7.028;2023-10-31T13:15:02;1.63;;;1.43;;
912;SDS011;443;51.448;7.028;2023-10-31T13:17:30;1.20;;;1.10;;
912;SDS011;443;51.448;7.028;2023-10-31T13:19:57;2.63;;;1.73;;
912;SDS011;443;51.448;7.028;2023-10-31T13:22:24;1.63;;;1.07;;
912;SDS011;443;51.448;7.028;2023-10-31T13:24:52;1.77;;;1.10;;
912;SDS011;443;51.448;7.028;2023-10-31T13:27:19;2.50;;;1.60;;
912;SDS011;443;51.448;7.028;2023-10-31T13:29:46;2.80;;;1.37;;
912;SDS011;443;51.448;7.028;2023-10-31T13:32:14;2.90;;;1.83;;
912;SDS011;443;51.448;7.028;2023-10-31T13:34:41;4.23;;;1.63;;
912;SDS011;443;51.448;7.028;2023-10-31T13:37:08;3.10;;;2.40;;
912;SDS011;443;51.448;7.028;2023-10-31T13:39:35;1.93;;;1.10;;
912;SDS011;443;51.448;7.028;2023-10-31T13:42:03;2.57;;;1.47;;
912;SDS011;443;51.448;7.028;2023-10-31T13:44:30;4.00;;;1.60;;
912;SDS011;443;51.448;7.028;2023-10-31T13:46:57;3.10;;;1.10;;
912;SDS011;443;51.448;7.028;2023-10-31T13:49:24;1.90;;;1.30;;
912;SDS011;443;51.448;7.028;2023-10-31T13:51:50;3.90;;;2.03;;
912;SDS011;443;51.448;7.028;2023-10-31T13:54:17;7.63;;;1.50;;
912;SDS011;443;51.448;7.028;2023-10-31T13:56:44;2.23;;;1.10;;
912;SDS011;443;51.448;7.028;2023-10-31T13:59:13;1.90;;;1.30;;
912;SDS011;443;51.448;7.028;2023-10-31T14:01:40;1.50;;;1.40;;
912;SDS011;443;51.448;7.028;2023-10-31T14:04:07;4.57;;;2.67;;
912;SDS011;443;51.448;7.028;2023-10-31T14:06:34;1.93;;;1.57;;
912;SDS011;443;51.448;7.028;2023-10-31T14:09:01;1.70;;;1.50;;
912;SDS011;443;51.448;7.028;2023-10-31T14:11:29;3.93;;;1.60;;
912;SDS011;443;51.448;7.028;2023-10-31T14:13:56;2.80;;;2.03;;
912;SDS011;443;51.448;7.028;2023-10-31T14:16:29;2.03;;;1.53;;
912;SDS011;443;51.448;7.028;2023-10-31T14:18:56;1.93;;;1.50;;
912;SDS011;443;51.448;7.028;2023-10-31T14:21:22;2.50;;;1.87;;
912;SDS011;443;51.448;7.028;2023-10-31T14:23:50;2.93;;;1.37;;
912;SDS011;443;51.448;7.028;2023-10-31T14:26:19;2.00;;;1.50;;
912;SDS011;443;51.448;7.028;2023-10-31T14:28:46;2.87;;;1.50;;
912;SDS011;443;51.448;7.028;2023-10-31T14:31:12;1.90;;;1.67;;
912;SDS011;443;51.448;7.028;2023-10-31T14:33:41;4.10;;;1.70;;
912;SDS011;443;51.448;7.028;2023-10-31T14:36:08;2.20;;;1.57;;
912;SDS011;443;51.448;7.028;2023-10-31T14:38:37;2.60;;;1.87;;
912;SDS011;443;51.448;7.028;2023-10-31T14:41:04;2.73;;;1.60;;
912;SDS011;443;51.448;7.028;2023-10-31T14:43:32;3.80;;;1.53;;
912;SDS011;443;51.448;7.028;2023-10-31T14:45:59;3.70;;;2.80;;
912;SDS011;443;51.448;7.028;2023-10-31T14:48:26;1.30;;;1.20;;
912;SDS011;443;51.448;7.028;2023-10-31T14:50:55;2.50;;;1.60;;
912;SDS011;443;51.448;7.028;2023-10-31T14:53:22;1.73;;;1.60;;
912;SDS011;443;51.448;7.028;2023-10-31T14:55:49;5.40;;;2.07;;
912;SDS011;443;51.448;7.028;2023-10-31T14:58:15;2.60;;;1.77;;
912;SDS011;443;51.448;7.028;2023-10-31T15:00:42;2.20;;;1.90;;
912;SDS011;443;51.448;7.028;2023-10-31T15:03:09;4.43;;;2.00;;
912;SDS011;443;51.448;7.028;2023-10-31T15:05:36;3.63;;;1.60;;
912;SDS011;443;51.448;7.028;2023-10-31T15:08:04;1.80;;;1.20;;
912;SDS011;443;51.448;7.028;2023-10-31T15:10:31;1.60;;;1.20;;
912;SDS011;443;51.448;7.028;2023-10-31T15:12:58;1.90;;;1.33;;
912;SDS011;443;51.448;7.028;2023-10-31T15:15:25;2.60;;;1.50;;
912;SDS011;443;51.448;7.028;2023-10-31T15:17:51;3.80;;;1.30;;
912;SDS011;443;51.448;7.028;2023-10-31T15:20:18;3.13;;;1.60;;
912;SDS011;443;51.448;7.028;2023-10-31T15:22:45;2.53;;;1.43;;
912;SDS011;443;51.448;7.028;2023-10-31T15:25:13;2.70;;;1.13;;
912;SDS011;443;51.448;7.028;2023-10-31T15:27:40;2.17;;;1.17;;
912;SDS011;443;51.448;7.028;2023-10-31T15:30:08;1.30;;;1.00;;
912;SDS011;443;51.448;7.028;2023-10-31T15:32:35;2.13;;;1.40;;
912;SDS011;443;51.448;7.028;2023-10-31T15:35:03;2.87;;;1.30;;
912;SDS011;443;51.448;7.028;2023-10-31T15:37:30;1.53;;;0.87;;
912;SDS011;443;51.448;7.028;2023-10-31T15:39:57;2.17;;;1.50;;
912;SDS011;443;51.448;7.028;2023-10-31T15:42:25;5.80;;;0.90;;
912;SDS011;443;51.448;7.028;2023-10-31T15:44:53;1.63;;;1.33;;
912;SDS011;443;51.448;7.028;2023-10-31T15:47:21;2.20;;;0.90;;
912;SDS011;443;51.448;7.028;2023-10-31T15:49:48;1.40;;;1.30;;